sensor_id;sensor_type;location;lat;lon;timestamp;pressure;altitude;pressure_sealevel;temperature;humidity
4598;BME280;62772;48.646;8.906;2023-11-18T00:00:18;97095.94;;;2.14;100.00
4598;BME280;62772;48.646;8.906;2023-11-18T00:05:19;97090.63;;;1.97;100.00
4598;BME280;62772;48.646;8.906;2023-11-18T00:10:19;97092.50;;;1.85;100.00
4598;BME280;62772;48.646;8.906;2023-11-18T00:15:20;97085.13;;;1.98;100.00
4598;BME280;62772;48.646;8.906;2023-11-18T00:20:20;97083.00;;;1.84;100.00
4598;BME280;62772;48.646;8.906;2023-11-18T00:25:24;97080.97;;;2.03;100.00
4598;BME280;62772;48.646;8.906;2023-11-18T00:30:24;97079.06;;;2.44;100.00
4598;BME280;62772;48.646;8.906;2023-11-18T00:35:25;97088.03;;;2.14;100.00
4598;BME280;62772;48.646;8.906;2023-11-18T00:40:25;97092.84;;;2.17;100.00
4598;BME280;62772;48.646;8.906;2023-11-18T00:45:27;97086.16;;;2.26;100.00
4598;BME280;62772;48.646;8.906;2023-11-18T00:50:29;97081.50;;;2.16;100.00
4598;BME280;62772;48.646;8.906;2023-11-18T00:55:29;97077.84;;;2.34;100.00
4598;BME280;62772;48.646;8.906;2023-11-18T01:00:30;97072.97;;;2.43;100.00
4598;BME280;62772;48.646;8.906;2023-11-18T01:05:31;97082.22;;;2.29;100.00
4598;BME280;62772;48.646;8.906;2023-11-18T01:10:31;97071.72;;;2.46;100.00
4598;BME280;62772;48.646;8.906;2023-11-18T01:15:32;97077.28;;;2.49;100.00
4598;BME280;62772;48.646;8.906;2023-11-18T01:20:32;97087.78;;;2.78;100.00
4598;BME280;62772;48.646;8.906;2023-11-18T01:25:33;97087.63;;;2.68;100.00
4598;BME280;62772;48.646;8.906;2023-11-18T01:30:34;97102.91;;;2.66;100.00
4598;BME280;62772;48.646;8.906;2023-11-18T01:35:35;97115.91;;;2.56;100.00
4598;BME280;62772;48.646;8.906;2023-11-18T01:40:35;97118.84;;;2.59;100.00
4598;BME280;62772;48.646;8.906;2023-11-18T01:45:36;97107.19;;;2.72;100.00
4598;BME280;62772;48.646;8.906;2023-11-18T01:50:38;97095.84;;;3.05;100.00
4598;BME280;62772;48.646;8.906;2023-11-18T01:55:41;97085.53;;;2.70;100.00
4598;BME280;62772;48.646;8.906;2023-11-18T02:00:42;97081.13;;;2.93;100.00
4598;BME280;62772;48.646;8.906;2023-11-18T02:05:43;97089.13;;;2.98;100.00
4598;BME280;62772;48.646;8.906;2023-11-18T02:10:57;97096.00;;;2.65;100.00
4598;BME280;62772;48.646;8.906;2023-11-18T02:16:01;97098.09;;;2.80;100.00
4598;BME280;62772;48.646;8.906;2023-11-18T02:21:04;97087.69;;;2.73;100.00
4598;BME280;62772;48.646;8.906;2023-11-18T02:26:05;97083.16;;;2.51;100.00
4598;BME280;62772;48.646;8.906;2023-11-18T02:31:12;97086.25;;;2.48;100.00
4598;BME280;62772;48.646;8.906;2023-11-18T02:36:33;97088.09;;;2.02;100.00
4598;BME280;62772;48.646;8.906;2023-11-18T02:41:38;97092.41;;;2.37;100.00
4598;BME280;62772;48.646;8.906;2023-11-18T02:46:40;97095.84;;;1.80;100.00
4598;BME280;62772;48.646;8.906;2023-11-18T02:51:43;97093.47;;;2.07;100.00
4598;BME280;62772;48.646;8.906;2023-11-18T02:56:48;97093.88;;;1.47;100.00
4598;BME280;62772;48.646;8.906;2023-11-18T03:01:48;97079.47;;;2.07;100.00
4598;BME280;62772;48.646;8.906;2023-11-18T03:06:49;97086.47;;;1.20;100.00
4598;BME280;62772;48.646;8.906;2023-11-18T03:11:51;97092.66;;;1.02;100.00
4598;BME280;62772;48.646;8.906;2023-11-18T03:16:51;97090.25;;;1.00;100.00
4598;BME280;62772;48.646;8.906;2023-11-18T03:21:53;97089.09;;;1.08;100.00
4598;BME280;62772;48.646;8.906;2023-11-18T03:26:55;97085.38;;;1.44;100.00
4598;BME280;62772;48.646;8.906;2023-11-18T03:31:55;97082.00;;;1.73;100.00
4598;BME280;62772;48.646;8.906;2023-11-18T03:36:56;97076.19;;;1.71;100.00
4598;BME280;62772;48.646;8.906;2023-11-18T03:41:57;97077.13;;;1.93;100.00
4598;BME280;62772;48.646;8.906;2023-11-18T03:46:57;97091.91;;;1.94;100.00
4598;BME280;62772;48.646;8.906;2023-11-18T03:51:58;97085.31;;;2.09;100.00
4598;BME280;62772;48.646;8.906;2023-11-18T03:56:58;97084.00;;;2.40;100.00
4598;BME280;62772;48.646;8.906;2023-11-18T04:01:59;97093.00;;;2.10;100.00
4598;BME280;62772;48.646;8.906;2023-11-18T04:07:00;97083.66;;;2.20;100.00
4598;BME280;62772;48.646;8.906;2023-11-18T04:12:04;97076.09;;;2.23;100.00
4598;BME280;62772;48.646;8.906;2023-11-18T04:17:05;97092.38;;;2.20;100.00
4598;BME280;62772;48.646;8.906;2023-11-18T04:22:06;97100.50;;;1.90;100.00
4598;BME280;62772;48.646;8.906;2023-11-18T04:27:06;97098.97;;;2.06;100.00
4598;BME280;62772;48.646;8.906;2023-11-18T04:32:07;97095.63;;;2.27;100.00
4598;BME280;62772;48.646;8.906;2023-11-18T04:37:09;97100.69;;;2.00;100.00
4598;BME280;62772;48.646;8.906;2023-11-18T04:42:10;97081.50;;;2.33;100.00
4598;BME280;62772;48.646;8.906;2023-11-18T04:47:10;97064.75;;;2.40;100.00
4598;BME280;62772;48.646;8.906;2023-11-18T04:52:11;97070.19;;;2.33;100.00
4598;BME280;62772;48.646;8.906;2023-11-18T04:57:11;97081.19;;;2.30;100.00
4598;BME280;62772;48.646;8.906;2023-11-18T05:02:12;97087.28;;;2.47;100.00
4598;BME280;62772;48.646;8.906;2023-11-18T05:07:12;97077.22;;;2.44;100.00
4598;BME280;62772;48.646;8.906;2023-11-18T05:12:13;97078.09;;;2.33;100.00
4598;BME280;62772;48.646;8.906;2023-11-18T05:17:13;97066.59;;;2.56;100.00
4598;BME280;62772;48.646;8.906;2023-11-18T05:22:14;97068.66;;;2.54;100.00
4598;BME280;62772;48.646;8.906;2023-11-18T05:27:15;97076.81;;;2.35;100.00
4598;BME280;62772;48.646;8.906;2023-11-18T05:32:17;97065.78;;;2.56;100.00
4598;BME280;62772;48.646;8.906;2023-11-18T05:37:18;97087.38;;;2.35;100.00
4598;BME280;62772;48.646;8.906;2023-11-18T05:42:18;97078.53;;;2.13;100.00
4598;BME280;62772;48.646;8.906;2023-11-18T05:47:19;97080.22;;;1.90;100.00
4598;BME280;62772;48.646;8.906;2023-11-18T05:52:21;97076.19;;;1.99;100.00
4598;BME280;62772;48.646;8.906;2023-11-18T05:57:22;97076.31;;;1.64;100.00
4598;BME280;62772;48.646;8.906;2023-11-18T06:02:23;97078.56;;;1.72;100.00
4598;BME280;62772;48.646;8.906;2023-11-18T06:07:25;97075.94;;;1.72;100.00
4598;BME280;62772;48.646;8.906;2023-11-18T06:12:25;97073.72;;;1.40;100.00
4598;BME280;62772;48.646;8.906;2023-11-18T06:17:27;97081.13;;;1.55;100.00
4598;BME280;62772;48.646;8.906;2023-11-18T06:22:28;97080.31;;;1.67;100.00
4598;BME280;62772;48.646;8.906;2023-11-18T06:27:28;97086.22;;;1.45;100.00
4598;BME280;62772;48.646;8.906;2023-11-18T06:32:29;97083.09;;;1.48;100.00
4598;BME280;62772;48.646;8.906;2023-11-18T06:37:34;97091.50;;;1.21;100.00
4598;BME280;62772;48.646;8.906;2023-11-18T06:42:34;97097.19;;;1.42;100.00
4598;BME280;62772;48.646;8.906;2023-11-18T06:47:36;97096.22;;;1.60;100.00
4598;BME280;62772;48.646;8.906;2023-11-18T06:52:38;97099.22;;;1.52;100.00
4598;BME280;62772;48.646;8.906;2023-11-18T06:57:38;97084.72;;;1.78;100.00
4598;BME280;62772;48.646;8.906;2023-11-18T07:02:40;97079.19;;;1.62;100.00
4598;BME280;62772;48.646;8.906;2023-11-18T07:07:41;97078.81;;;1.59;100.00
4598;BME280;62772;48.646;8.906;2023-11-18T07:12:43;97076.38;;;1.40;100.00
4598;BME280;62772;48.646;8.906;2023-11-18T07:17:44;97090.66;;;1.44;100.00
4598;BME280;62772;48.646;8.906;2023-11-18T07:22:44;97094.69;;;1.35;100.00
4598;BME280;62772;48.646;8.906;2023-11-18T07:27:45;97100.00;;;1.64;100.00
4598;BME280;62772;48.646;8.906;2023-11-18T07:32:45;97100.91;;;1.70;100.00
4598;BME280;62772;48.646;8.906;2023-11-18T07:37:46;97100.66;;;1.83;100.00
4598;BME280;62772;48.646;8.906;2023-11-18T07:42:46;97096.13;;;1.95;100.00
4598;BME280;62772;48.646;8.906;2023-11-18T07:47:46;97109.19;;;1.90;100.00
4598;BME280;62772;48.646;8.906;2023-11-18T07:52:47;97106.25;;;1.87;100.00
4598;BME280;62772;48.646;8.906;2023-11-18T07:57:49;97093.63;;;1.89;100.00
4598;BME280;62772;48.646;8.906;2023-11-18T08:02:49;97091.00;;;1.89;100.00
4598;BME280;62772;48.646;8.906;2023-11-18T08:07:50;97103.06;;;1.73;100.00
4598;BME280;62772;48.646;8.906;2023-11-18T08:12:51;97104.88;;;1.84;100.00
4598;BME280;62772;48.646;8.906;2023-11-18T08:17:54;97093.84;;;1.99;100.00
4598;BME280;62772;48.646;8.906;2023-11-18T08:22:54;97106.41;;;2.09;100.00
4598;BME280;62772;48.646;8.906;2023-11-18T08:27:55;97097.56;;;2.15;100.00
4598;BME280;62772;48.646;8.906;2023-11-18T08:32:56;97097.69;;;2.37;100.00
4598;BME280;62772;48.646;8.906;2023-11-18T08:37:58;97108.22;;;2.37;100.00
4598;BME280;62772;48.646;8.906;2023-11-18T08:42:59;97089.72;;;2.66;100.00
4598;BME280;62772;48.646;8.906;2023-11-18T08:48:03;97098.38;;;2.32;100.00
4598;BME280;62772;48.646;8.906;2023-11-18T08:53:07;97082.88;;;2.36;100.00
4598;BME280;62772;48.646;8.906;2023-11-18T08:58:13;97096.84;;;2.36;100.00
4598;BME280;62772;48.646;8.906;2023-11-18T09:03:20;97081.06;;;2.53;100.00
4598;BME280;62772;48.646;8.906;2023-11-18T09:08:37;97067.47;;;2.62;100.00
4598;BME280;62772;48.646;8.906;2023-11-18T09:13:44;97072.41;;;2.92;100.00
4598;BME280;62772;48.646;8.906;2023-11-18T09:18:48;97079.84;;;3.12;100.00
4598;BME280;62772;48.646;8.906;2023-11-18T09:23:48;97076.56;;;3.05;100.00
4598;BME280;62772;48.646;8.906;2023-11-18T09:28:49;97078.78;;;3.13;100.00
4598;BME280;62772;48.646;8.906;2023-11-18T09:33:53;97097.06;;;2.98;100.00
4598;BME280;62772;48.646;8.906;2023-11-18T09:38:53;97095.91;;;3.11;100.00
4598;BME280;62772;48.646;8.906;2023-11-18T09:43:54;97076.00;;;3.03;100.00
4598;BME280;62772;48.646;8.906;2023-11-18T09:49:06;97074.13;;;3.20;100.00
4598;BME280;62772;48.646;8.906;2023-11-18T09:54:29;97066.97;;;3.38;100.00
4598;BME280;62772;48.646;8.906;2023-11-18T09:59:48;97057.94;;;3.56;100.00
4598;BME280;62772;48.646;8.906;2023-11-18T10:04:56;97069.69;;;3.43;100.00
4598;BME280;62772;48.646;8.906;2023-11-18T10:09:59;97074.59;;;3.56;100.00
4598;BME280;62772;48.646;8.906;2023-11-18T10:15:02;97072.63;;;3.69;100.00
4598;BME280;62772;48.646;8.906;2023-11-18T10:20:11;97073.44;;;3.69;100.00
4598;BME280;62772;48.646;8.906;2023-11-18T10:25:23;97071.78;;;3.85;100.00
4598;BME280;62772;48.646;8.906;2023-11-18T10:30:24;97077.06;;;3.85;100.00
4598;BME280;62772;48.646;8.906;2023-11-18T10:35:25;97075.88;;;3.98;100.00
4598;BME280;62772;48.646;8.906;2023-11-18T10:40:28;97075.88;;;3.98;100.00
4598;BME280;62772;48.646;8.906;2023-11-18T10:45:28;97086.34;;;4.15;100.00
4598;BME280;62772;48.646;8.906;2023-11-18T10:50:29;97083.88;;;4.08;100.00
4598;BME280;62772;48.646;8.906;2023-11-18T10:55:38;97074.88;;;4.31;100.00
4598;BME280;62772;48.646;8.906;2023-11-18T11:00:47;97068.47;;;4.27;100.00
4598;BME280;62772;48.646;8.906;2023-11-18T11:05:49;97051.81;;;4.27;100.00
4598;BME280;62772;48.646;8.906;2023-11-18T11:10:51;97055.53;;;4.31;100.00
4598;BME280;62772;48.646;8.906;2023-11-18T11:15:53;97051.06;;;4.31;100.00
4598;BME280;62772;48.646;8.906;2023-11-18T11:31:39;97047.38;;;4.65;100.00
4598;BME280;62772;48.646;8.906;2023-11-18T11:36:46;97033.44;;;4.80;100.00
4598;BME280;62772;48.646;8.906;2023-11-18T11:41:52;97037.44;;;4.82;100.00
4598;BME280;62772;48.646;8.906;2023-11-18T11:46:58;97026.34;;;4.85;100.00
4598;BME280;62772;48.646;8.906;2023-11-18T11:52:10;97014.66;;;4.81;100.00
4598;BME280;62772;48.646;8.906;2023-11-18T11:57:15;96996.94;;;4.82;100.00
4598;BME280;62772;48.646;8.906;2023-11-18T12:02:15;96994.13;;;4.99;100.00
4598;BME280;62772;48.646;8.906;2023-11-18T12:07:16;96991.00;;;5.07;100.00
4598;BME280;62772;48.646;8.906;2023-11-18T12:12:17;96995.41;;;4.91;100.00
4598;BME280;62772;48.646;8.906;2023-11-18T12:17:19;96977.19;;;5.00;100.00
4598;BME280;62772;48.646;8.906;2023-11-18T12:22:23;96971.44;;;5.13;100.00
4598;BME280;62772;48.646;8.906;2023-11-18T12:33:00;96952.16;;;5.28;100.00
4598;BME280;62772;48.646;8.906;2023-11-18T12:43:15;96935.91;;;5.04;100.00
4598;BME280;62772;48.646;8.906;2023-11-18T12:48:20;96931.97;;;5.17;100.00
4598;BME280;62772;48.646;8.906;2023-11-18T12:53:27;96939.63;;;5.03;100.00
4598;BME280;62772;48.646;8.906;2023-11-18T12:58:30;96932.69;;;4.92;100.00
4598;BME280;62772;48.646;8.906;2023-11-18T13:03:33;96922.41;;;5.00;100.00
4598;BME280;62772;48.646;8.906;2023-11-18T13:08:35;96932.47;;;5.03;100.00
4598;BME280;62772;48.646;8.906;2023-11-18T13:13:36;96926.66;;;5.01;100.00
4598;BME280;62772;48.646;8.906;2023-11-18T13:18:44;96922.09;;;4.92;100.00
4598;BME280;62772;48.646;8.906;2023-11-18T13:23:48;96888.75;;;4.96;100.00
4598;BME280;62772;48.646;8.906;2023-11-18T13:28:50;96904.81;;;4.79;100.00
4598;BME280;62772;48.646;8.906;2023-11-18T13:33:51;96906.44;;;4.85;100.00
4598;BME280;62772;48.646;8.906;2023-11-18T13:38:51;96908.03;;;4.81;100.00
4598;BME280;62772;48.646;8.906;2023-11-18T13:43:52;96891.41;;;4.96;100.00
4598;BME280;62772;48.646;8.906;2023-11-18T13:48:53;96871.28;;;4.95;100.00
4598;BME280;62772;48.646;8.906;2023-11-18T13:53:54;96855.97;;;5.07;100.00
4598;BME280;62772;48.646;8.906;2023-11-18T13:58:57;96835.09;;;5.21;100.00
4598;BME280;62772;48.646;8.906;2023-11-18T14:03:57;96818.94;;;5.17;100.00
4598;BME280;62772;48.646;8.906;2023-11-18T14:09:02;96816.59;;;5.36;100.00
4598;BME280;62772;48.646;8.906;2023-11-18T14:14:06;96810.44;;;5.15;100.00
4598;BME280;62772;48.646;8.906;2023-11-18T14:19:08;96799.31;;;5.18;100.00
4598;BME280;62772;48.646;8.906;2023-11-18T14:24:09;96793.28;;;5.33;100.00
4598;BME280;62772;48.646;8.906;2023-11-18T14:29:10;96796.97;;;5.27;100.00
4598;BME280;62772;48.646;8.906;2023-11-18T14:34:14;96796.44;;;5.35;100.00
4598;BME280;62772;48.646;8.906;2023-11-18T14:39:15;96792.75;;;5.41;100.00
4598;BME280;62772;48.646;8.906;2023-11-18T14:44:19;96791.69;;;5.42;100.00
4598;BME280;62772;48.646;8.906;2023-11-18T14:49:20;96793.78;;;5.40;100.00
4598;BME280;62772;48.646;8.906;2023-11-18T14:54:21;96778.41;;;5.37;100.00
4598;BME280;62772;48.646;8.906;2023-11-18T14:59:21;96784.53;;;5.43;100.00
4598;BME280;62772;48.646;8.906;2023-11-18T15:04:23;96805.97;;;5.47;100.00
4598;BME280;62772;48.646;8.906;2023-11-18T15:09:24;96802.00;;;5.39;100.00
4598;BME280;62772;48.646;8.906;2023-11-18T15:14:24;96798.56;;;5.38;100.00
4598;BME280;62772;48.646;8.906;2023-11-18T15:19:25;96789.00;;;5.37;100.00
4598;BME280;62772;48.646;8.906;2023-11-18T15:24:27;96769.69;;;5.32;100.00
4598;BME280;62772;48.646;8.906;2023-11-18T15:29:27;96763.09;;;5.39;100.00
4598;BME280;62772;48.646;8.906;2023-11-18T15:34:33;96760.16;;;5.20;100.00
4598;BME280;62772;48.646;8.906;2023-11-18T15:39:34;96763.06;;;5.50;100.00
4598;BME280;62772;48.646;8.906;2023-11-18T15:44:35;96750.34;;;5.47;100.00
4598;BME280;62772;48.646;8.906;2023-11-18T15:49:35;96759.09;;;5.47;100.00
4598;BME280;62772;48.646;8.906;2023-11-18T15:54:36;96748.22;;;5.43;100.00
4598;BME280;62772;48.646;8.906;2023-11-18T15:59:37;96729.94;;;5.42;100.00
4598;BME280;62772;48.646;8.906;2023-11-18T16:04:38;96727.84;;;5.49;100.00
4598;BME280;62772;48.646;8.906;2023-11-18T16:09:40;96728.63;;;5.55;100.00
4598;BME280;62772;48.646;8.906;2023-11-18T16:14:40;96731.03;;;5.25;100.00
4598;BME280;62772;48.646;8.906;2023-11-18T16:19:40;96727.31;;;5.37;100.00
4598;BME280;62772;48.646;8.906;2023-11-18T16:24:41;96728.13;;;5.22;100.00
4598;BME280;62772;48.646;8.906;2023-11-18T16:29:42;96732.09;;;5.09;100.00
4598;BME280;62772;48.646;8.906;2023-11-18T16:34:42;96728.88;;;5.12;100.00
4598;BME280;62772;48.646;8.906;2023-11-18T16:39:43;96716.19;;;5.14;100.00
4598;BME280;62772;48.646;8.906;2023-11-18T16:44:45;96708.50;;;5.28;100.00
4598;BME280;62772;48.646;8.906;2023-11-18T16:49:48;96689.69;;;5.30;100.00
4598;BME280;62772;48.646;8.906;2023-11-18T16:54:49;96675.41;;;5.25;100.00
4598;BME280;62772;48.646;8.906;2023-11-18T16:59:49;96654.22;;;5.15;100.00
4598;BME280;62772;48.646;8.906;2023-11-18T17:04:50;96651.06;;;5.23;100.00
4598;BME280;62772;48.646;8.906;2023-11-18T17:09:50;96650.28;;;5.07;100.00
4598;BME280;62772;48.646;8.906;2023-11-18T17:14:51;96648.69;;;5.06;100.00
4598;BME280;62772;48.646;8.906;2023-11-18T17:19:51;96642.84;;;5.15;100.00
4598;BME280;62772;48.646;8.906;2023-11-18T17:24:52;96644.44;;;5.11;100.00
4598;BME280;62772;48.646;8.906;2023-11-18T17:29:55;96631.75;;;5.07;100.00
4598;BME280;62772;48.646;8.906;2023-11-18T17:34:55;96617.19;;;5.05;100.00
4598;BME280;62772;48.646;8.906;2023-11-18T17:39:56;96607.13;;;4.86;100.00
4598;BME280;62772;48.646;8.906;2023-11-18T17:44:58;96588.06;;;4.95;100.00
4598;BME280;62772;48.646;8.906;2023-11-18T17:50:02;96551.00;;;5.05;100.00
4598;BME280;62772;48.646;8.906;2023-11-18T17:55:03;96573.50;;;4.97;100.00
4598;BME280;62772;48.646;8.906;2023-11-18T18:00:05;96581.44;;;5.13;100.00
4598;BME280;62772;48.646;8.906;2023-11-18T18:05:12;96576.41;;;5.01;100.00
4598;BME280;62772;48.646;8.906;2023-11-18T18:10:13;96579.56;;;5.13;100.00
4598;BME280;62772;48.646;8.906;2023-11-18T18:15:13;96597.84;;;5.15;100.00
4598;BME280;62772;48.646;8.906;2023-11-18T18:20:14;96593.34;;;5.10;100.00
4598;BME280;62772;48.646;8.906;2023-11-18T18:25:14;96568.19;;;5.13;100.00
4598;BME280;62772;48.646;8.906;2023-11-18T18:30:15;96549.13;;;5.05;100.00
4598;BME280;62772;48.646;8.906;2023-11-18T18:35:16;96543.03;;;5.20;100.00
4598;BME280;62772;48.646;8.906;2023-11-18T18:40:18;96538.03;;;4.93;100.00
4598;BME280;62772;48.646;8.906;2023-11-18T18:45:23;96527.19;;;5.05;100.00
4598;BME280;62772;48.646;8.906;2023-11-18T18:50:23;96532.75;;;5.03;100.00
4598;BME280;62772;48.646;8.906;2023-11-18T18:55:23;96536.75;;;4.90;100.00
4598;BME280;62772;48.646;8.906;2023-11-18T19:00:24;96529.81;;;5.05;100.00
4598;BME280;62772;48.646;8.906;2023-11-18T19:05:25;96505.47;;;4.98;100.00
4598;BME280;62772;48.646;8.906;2023-11-18T19:10:26;96493.56;;;5.00;100.00
4598;BME280;62772;48.646;8.906;2023-11-18T19:15:26;96463.59;;;5.15;100.00
4598;BME280;62772;48.646;8.906;2023-11-18T19:20:27;96457.53;;;5.09;100.00
4598;BME280;62772;48.646;8.906;2023-11-18T19:25:27;96438.50;;;5.07;100.00
4598;BME280;62772;48.646;8.906;2023-11-18T19:30:28;96429.50;;;5.03;100.00
4598;BME280;62772;48.646;8.906;2023-11-18T19:35:30;96407.50;;;5.13;100.00
4598;BME280;62772;48.646;8.906;2023-11-18T19:40:33;96393.78;;;5.06;100.00
4598;BME280;62772;48.646;8.906;2023-11-18T19:45:34;96393.31;;;4.88;100.00
4598;BME280;62772;48.646;8.906;2023-11-18T19:50:34;96376.06;;;4.96;100.00
4598;BME280;62772;48.646;8.906;2023-11-18T19:55:35;96369.69;;;5.07;100.00
4598;BME280;62772;48.646;8.906;2023-11-18T20:00:36;96378.97;;;4.95;100.00
4598;BME280;62772;48.646;8.906;2023-11-18T20:05:36;96340.06;;;5.00;100.00
4598;BME280;62772;48.646;8.906;2023-11-18T20:10:37;96366.00;;;4.93;100.00
4598;BME280;62772;48.646;8.906;2023-11-18T20:15:37;96396.47;;;4.90;100.00
4598;BME280;62772;48.646;8.906;2023-11-18T20:20:38;96402.25;;;4.98;100.00
4598;BME280;62772;48.646;8.906;2023-11-18T20:25:38;96380.44;;;5.21;100.00
4598;BME280;62772;48.646;8.906;2023-11-18T20:30:41;96354.53;;;5.13;100.00
4598;BME280;62772;48.646;8.906;2023-11-18T20:35:42;96354.78;;;5.22;100.00
4598;BME280;62772;48.646;8.906;2023-11-18T20:40:44;96350.03;;;5.14;100.00
4598;BME280;62772;48.646;8.906;2023-11-18T20:45:44;96349.91;;;5.34;100.00
4598;BME280;62772;48.646;8.906;2023-11-18T20:50:47;96372.13;;;5.38;100.00
4598;BME280;62772;48.646;8.906;2023-11-18T20:55:51;96366.22;;;5.52;100.00
4598;BME280;62772;48.646;8.906;2023-11-18T21:00:51;96353.69;;;5.62;100.00
4598;BME280;62772;48.646;8.906;2023-11-18T21:05:53;96322.94;;;5.61;100.00
4598;BME280;62772;48.646;8.906;2023-11-18T21:10:54;96322.53;;;5.49;100.00
4598;BME280;62772;48.646;8.906;2023-11-18T21:15:54;96341.09;;;5.49;100.00
4598;BME280;62772;48.646;8.906;2023-11-18T21:20:56;96338.56;;;5.68;100.00
4598;BME280;62772;48.646;8.906;2023-11-18T21:25:57;96366.34;;;5.71;100.00
4598;BME280;62772;48.646;8.906;2023-11-18T21:30:57;96363.13;;;5.74;100.00
4598;BME280;62772;48.646;8.906;2023-11-18T21:35:58;96356.81;;;5.70;100.00
4598;BME280;62772;48.646;8.906;2023-11-18T21:40:59;96345.94;;;5.71;100.00
4598;BME280;62772;48.646;8.906;2023-11-18T21:46:03;96353.31;;;5.79;100.00
4598;BME280;62772;48.646;8.906;2023-11-18T21:51:03;96359.88;;;5.82;100.00
4598;BME280;62772;48.646;8.906;2023-11-18T21:56:05;96363.63;;;5.81;100.00
4598;BME280;62772;48.646;8.906;2023-11-18T22:01:05;96346.09;;;5.85;100.00
4598;BME280;62772;48.646;8.906;2023-11-18T22:06:06;96345.69;;;5.73;100.00
4598;BME280;62772;48.646;8.906;2023-11-18T22:11:06;96347.50;;;5.77;100.00
4598;BME280;62772;48.646;8.906;2023-11-18T22:16:07;96320.84;;;5.63;100.00
4598;BME280;62772;48.646;8.906;2023-11-18T22:21:08;96303.84;;;5.64;100.00
4598;BME280;62772;48.646;8.906;2023-11-18T22:26:09;96307.38;;;5.60;100.00
4598;BME280;62772;48.646;8.906;2023-11-18T22:31:09;96300.94;;;5.66;100.00
4598;BME280;62772;48.646;8.906;2023-11-18T22:36:10;96279.31;;;5.54;100.00
4598;BME280;62772;48.646;8.906;2023-11-18T22:41:10;96292.09;;;5.47;100.00
4598;BME280;62772;48.646;8.906;2023-11-18T22:46:12;96291.59;;;5.44;100.00
4598;BME280;62772;48.646;8.906;2023-11-18T22:51:13;96292.31;;;5.50;100.00
4598;BME280;62772;48.646;8.906;2023-11-18T22:56:13;96298.94;;;5.53;100.00
4598;BME280;62772;48.646;8.906;2023-11-18T23:01:14;96295.13;;;5.64;100.00
4598;BME280;62772;48.646;8.906;2023-11-18T23:06:20;96288.22;;;5.68;100.00
4598;BME280;62772;48.646;8.906;2023-11-18T23:11:21;96301.53;;;5.58;100.00
4598;BME280;62772;48.646;8.906;2023-11-18T23:16:22;96289.22;;;5.72;100.00
4598;BME280;62772;48.646;8.906;2023-11-18T23:21:24;96285.41;;;5.84;100.00
4598;BME280;62772;48.646;8.906;2023-11-18T23:26:26;96263.41;;;5.83;100.00
4598;BME280;62772;48.646;8.906;2023-11-18T23:31:27;96236.25;;;5.96;100.00
4598;BME280;62772;48.646;8.906;2023-11-18T23:36:28;96234.53;;;5.81;100.00
4598;BME280;62772;48.646;8.906;2023-11-18T23:41:28;96223.56;;;5.93;100.00
4598;BME280;62772;48.646;8.906;2023-11-18T23:46:30;96243.06;;;6.08;100.00
4598;BME280;62772;48.646;8.906;2023-11-18T23:51:31;96243.22;;;6.16;100.00
4598;BME280;62772;48.646;8.906;2023-11-18T23:56:32;96240.84;;;6.15;100.00
